Time;durP1;ratioP1;P1;durP2;ratioP2;P2;SDS_P1;SDS_P2;PMS_P1;PMS_P2;Temp;Humidity;BMP_temperature;BMP_pressure;BME280_temperature;BME280_humidity;BME280_pressure;Samples;Min_cycle;Max_cycle;Signal;HPM_P1;HPM_P2
2023/12/25 00:06:00;;;;;;;16.63;3.03;;;12.90;99.90;;;;;;20661470;28;20505;-40
2023/12/25 00:16:01;;;;;;;19.75;2.80;;;12.80;99.90;;;;;;20669822;28;20502;-40
2023/12/25 00:26:01;;;;;;;9.98;2.10;;;12.80;99.90;;;;;;20668311;28;20064;-40
2023/12/25 00:36:02;;;;;;;7.07;1.77;;;12.70;99.90;;;;;;20668765;28;20538;-41
2023/12/25 00:46:06;;;;;;;19.88;2.75;;;12.60;99.90;;;;;;20667731;28;20072;-40
2023/12/25 00:56:08;;;;;;;19.95;2.78;;;12.70;99.90;;;;;;20668200;28;20033;-40
2023/12/25 01:06:08;;;;;;;14.77;3.28;;;12.70;99.90;;;;;;20668092;28;20387;-41
2023/12/25 01:16:09;;;;;;;17.27;3.78;;;12.70;99.90;;;;;;20664871;28;20065;-41
2023/12/25 01:26:09;;;;;;;20.35;2.85;;;12.70;99.90;;;;;;20665584;28;20569;-41
2023/12/25 01:36:10;;;;;;;20.15;4.55;;;12.60;99.90;;;;;;20688083;28;20056;-40
2023/12/25 01:46:13;;;;;;;9.05;2.20;;;12.60;97.40;;;;;;20694066;28;20048;-41
2023/12/25 01:56:14;;;;;;;10.00;2.20;;;12.60;93.40;;;;;;20691497;28;20121;-41
2023/12/25 02:06:15;;;;;;;9.05;1.92;;;12.60;99.90;;;;;;20690682;28;20041;-41
2023/12/25 02:16:16;;;;;;;15.68;2.92;;;12.40;99.90;;;;;;20691473;28;20046;-41
2023/12/25 02:26:16;;;;;;;12.13;3.00;;;12.30;99.90;;;;;;20687554;28;20054;-40
2023/12/25 02:36:17;;;;;;;17.37;2.97;;;12.20;99.90;;;;;;20691379;28;20815;-40
2023/12/25 02:46:17;;;;;;;18.63;3.58;;;12.20;99.90;;;;;;20681928;28;20469;-40
2023/12/25 02:56:18;;;;;;;21.00;3.55;;;12.30;99.90;;;;;;20675682;28;20046;-40
2023/12/25 03:06:18;;;;;;;17.73;2.78;;;12.30;99.90;;;;;;20677498;28;20057;-40
2023/12/25 03:16:19;;;;;;;17.92;2.67;;;12.30;99.90;;;;;;20671020;28;20038;-41
2023/12/25 03:26:20;;;;;;;18.05;3.55;;;12.30;99.90;;;;;;20673201;28;20050;-41
2023/12/25 03:36:20;;;;;;;14.30;2.90;;;12.30;99.90;;;;;;20672123;28;20053;-41
2023/12/25 03:46:21;;;;;;;21.42;3.28;;;12.30;99.90;;;;;;20669894;28;20457;-41
2023/12/25 03:56:23;;;;;;;14.07;3.08;;;12.40;99.90;;;;;;20670487;28;20089;-41
2023/12/25 04:06:25;;;;;;;18.20;3.67;;;12.40;99.90;;;;;;20672642;28;20046;-41
2023/12/25 04:16:26;;;;;;;19.95;3.00;;;12.50;99.90;;;;;;20670294;28;20088;-41
2023/12/25 04:26:27;;;;;;;19.25;3.22;;;12.40;99.90;;;;;;20671050;28;20054;-41
2023/12/25 04:36:28;;;;;;;15.80;3.45;;;12.50;99.90;;;;;;20669018;28;20046;-41
2023/12/25 04:46:29;;;;;;;14.63;2.70;;;12.40;99.90;;;;;;20668148;28;20050;-41
2023/12/25 04:56:29;;;;;;;20.05;2.65;;;12.40;99.90;;;;;;20668167;28;20124;-41
2023/12/25 05:06:30;;;;;;;13.82;2.33;;;12.30;99.90;;;;;;20665486;28;20060;-41
2023/12/25 05:16:31;;;;;;;10.93;1.73;;;12.20;99.90;;;;;;20666736;28;20088;-42
2023/12/25 05:26:32;;;;;;;12.02;2.08;;;12.10;99.90;;;;;;20661547;28;20092;-42
2023/12/25 05:36:32;;;;;;;7.88;1.30;;;12.30;99.90;;;;;;20665609;28;20071;-42
2023/12/25 05:46:33;;;;;;;7.68;0.90;;;12.40;99.90;;;;;;20665518;28;20042;-41
2023/12/25 05:56:35;;;;;;;7.15;1.30;;;12.30;99.90;;;;;;20664373;28;20065;-41
2023/12/25 06:06:36;;;;;;;2.85;0.63;;;12.20;99.90;;;;;;20665198;28;20271;-42
2023/12/25 06:16:37;;;;;;;5.97;0.77;;;12.10;99.90;;;;;;20665365;28;20038;-41
2023/12/25 06:26:37;;;;;;;4.07;0.70;;;12.10;96.00;;;;;;20678517;28;20333;-41
2023/12/25 06:36:38;;;;;;;5.35;0.80;;;12.00;90.10;;;;;;20678776;28;20057;-41
2023/12/25 06:46:40;;;;;;;7.40;1.17;;;11.90;90.10;;;;;;20676436;28;20044;-41
2023/12/25 06:56:40;;;;;;;7.32;1.10;;;12.00;71.80;;;;;;20678330;28;20089;-41
2023/12/25 07:06:41;;;;;;;8.15;1.52;;;11.90;71.50;;;;;;20675893;28;20368;-41
2023/12/25 07:16:41;;;;;;;5.25;1.00;;;11.80;68.80;;;;;;20673417;28;20077;-42
2023/12/25 07:26:42;;;;;;;11.88;1.20;;;11.80;68.60;;;;;;20673894;28;20625;-42
2023/12/25 07:36:42;;;;;;;5.82;1.00;;;11.70;74.50;;;;;;20668070;28;20461;-42
2023/12/25 07:46:43;;;;;;;5.05;0.88;;;11.60;87.10;;;;;;20671340;28;20465;-42
2023/12/25 07:56:43;;;;;;;5.78;0.82;;;11.70;90.50;;;;;;20672279;28;20052;-42
2023/12/25 08:06:44;;;;;;;4.95;1.00;;;11.70;98.40;;;;;;20668813;28;20052;-41
2023/12/25 08:16:44;;;;;;;6.90;0.82;;;11.60;99.90;;;;;;20670521;28;20052;-42
2023/12/25 08:26:45;;;;;;;8.50;0.98;;;11.60;99.90;;;;;;20670333;28;20545;-41
2023/12/25 08:36:46;;;;;;;5.93;0.80;;;11.50;99.90;;;;;;20668931;28;20488;-41
2023/12/25 08:46:47;;;;;;;8.65;1.88;;;11.60;99.90;;;;;;20641909;28;20042;-42
2023/12/25 08:56:47;;;;;;;7.18;0.80;;;11.70;99.90;;;;;;20667028;28;20394;-41
2023/12/25 09:06:48;;;;;;;4.85;0.80;;;11.80;99.90;;;;;;20662821;28;20046;-41
2023/12/25 09:16:49;;;;;;;8.63;1.27;;;11.70;99.90;;;;;;20661853;28;20298;-41
2023/12/25 09:26:49;;;;;;;6.13;0.98;;;11.90;99.90;;;;;;20661809;28;20596;-41
2023/12/25 09:36:51;;;;;;;6.68;0.90;;;11.90;97.00;;;;;;20662459;28;20466;-41
2023/12/25 09:46:52;;;;;;;3.85;0.93;;;11.90;95.50;;;;;;20661764;28;20142;-41
2023/12/25 09:56:56;;;;;;;9.27;1.20;;;11.90;95.50;;;;;;20674057;28;20053;-41
2023/12/25 10:06:58;;;;;;;4.93;0.93;;;11.90;86.70;;;;;;20674285;28;20050;-41
2023/12/25 10:16:59;;;;;;;3.00;0.70;;;11.90;92.50;;;;;;20679097;28;20048;-41
2023/12/25 10:27:10;;;;;;;9.05;1.10;;;12.00;58.60;;;;;;20678966;28;20050;-41
2023/12/25 10:37:12;;;;;;;5.30;0.73;;;12.00;50.70;;;;;;20675901;28;20446;-41
2023/12/25 10:47:14;;;;;;;5.90;1.23;;;12.00;47.50;;;;;;20679554;28;20042;-42
2023/12/25 10:57:16;;;;;;;3.35;0.90;;;12.20;28.20;;;;;;20669098;28;20034;-41
2023/12/25 11:07:17;;;;;;;4.30;0.82;;;12.30;21.20;;;;;;20666392;28;20046;-42
2023/12/25 11:17:18;;;;;;;7.40;0.80;;;12.30;24.00;;;;;;20671238;28;20038;-41
2023/12/25 11:27:20;;;;;;;3.58;0.75;;;12.40;15.30;;;;;;20666737;28;20322;-42
2023/12/25 11:37:20;;;;;;;3.97;0.80;;;12.40;12.10;;;;;;20668785;28;20052;-42
2023/12/25 11:47:28;;;;;;;4.45;0.60;;;12.50;9.80;;;;;;20668457;28;20046;-41
2023/12/25 11:57:29;;;;;;;7.18;0.93;;;12.40;12.20;;;;;;20668591;28;20046;-41
2023/12/25 12:07:30;;;;;;;4.55;0.75;;;12.60;11.90;;;;;;20668189;28;20144;-41
2023/12/25 12:17:35;;;;;;;5.15;1.00;;;12.60;14.70;;;;;;20671452;28;20068;-42
2023/12/25 12:27:36;;;;;;;4.22;0.77;;;12.50;16.40;;;;;;20671524;28;20130;-41
2023/12/25 12:37:36;;;;;;;3.25;0.70;;;12.60;17.70;;;;;;20668512;28;20042;-41
2023/12/25 12:47:37;;;;;;;5.88;1.88;;;12.80;7.80;;;;;;20665280;28;20751;-41
2023/12/25 12:57:39;;;;;;;4.28;0.60;;;12.70;9.40;;;;;;20670442;28;20042;-41
2023/12/25 13:07:40;;;;;;;6.65;0.60;;;12.60;11.10;;;;;;20667570;28;20046;-42
2023/12/25 13:17:40;;;;;;;4.25;0.77;;;12.60;10.40;;;;;;20668172;28;20128;-41
2023/12/25 13:27:41;;;;;;;4.57;0.80;;;12.60;15.90;;;;;;20666847;28;20257;-41
2023/12/25 13:37:42;;;;;;;5.10;1.17;;;12.60;15.20;;;;;;20664642;28;20046;-41
2023/12/25 13:47:42;;;;;;;7.18;0.80;;;12.50;17.20;;;;;;20666872;28;20046;-42
2023/12/25 13:57:43;;;;;;;5.88;1.40;;;12.50;17.50;;;;;;20666089;28;20042;-41
2023/12/25 14:07:44;;;;;;;6.18;0.93;;;12.40;13.40;;;;;;20666338;28;20038;-42
2023/12/25 14:17:49;;;;;;;6.03;0.90;;;12.30;12.00;;;;;;20663775;28;20053;-41
2023/12/25 14:27:49;;;;;;;4.13;0.90;;;12.30;8.70;;;;;;20661359;28;20153;-42
2023/12/25 14:37:50;;;;;;;4.22;0.85;;;12.30;8.20;;;;;;20664902;28;20413;-41
2023/12/25 14:47:50;;;;;;;5.95;1.00;;;12.30;5.30;;;;;;20674855;28;20413;-41
2023/12/25 14:57:51;;;;;;;4.30;0.90;;;12.30;8.60;;;;;;20677553;28;21627;-41
2023/12/25 15:07:52;;;;;;;4.80;1.10;;;12.30;14.00;;;;;;20679371;28;20533;-42
2023/12/25 15:17:53;;;;;;;5.93;1.10;;;12.20;26.00;;;;;;20674240;28;20050;-41
2023/12/25 15:27:53;;;;;;;8.95;1.50;;;12.20;44.50;;;;;;20675597;28;20050;-41
2023/12/25 15:37:54;;;;;;;9.27;2.03;;;12.30;52.80;;;;;;20673027;28;20058;-41
2023/12/25 15:47:55;;;;;;;12.40;2.10;;;12.30;62.30;;;;;;20671782;28;20552;-41
2023/12/25 15:57:56;;;;;;;13.18;3.22;;;12.30;67.50;;;;;;20669853;28;20056;-41
2023/12/25 16:07:56;;;;;;;17.00;5.03;;;12.30;78.90;;;;;;20672745;28;20049;-41
2023/12/25 16:17:57;;;;;;;15.68;4.93;;;12.40;84.40;;;;;;20670965;28;20379;-41
2023/12/25 16:28:04;;;;;;;15.40;2.73;;;12.50;85.00;;;;;;20671923;28;20054;-41
2023/12/25 16:38:06;;;;;;;;;;;12.50;73.90;;;;;;20671366;28;20054;-41
2023/12/25 16:48:06;;;;;;;13.70;3.15;;;12.50;67.10;;;;;;20669081;28;20359;-41
2023/12/25 16:58:08;;;;;;;11.57;2.47;;;12.40;76.90;;;;;;20667727;28;20068;-41
2023/12/25 17:08:08;;;;;;;11.98;3.10;;;12.20;99.90;;;;;;20668159;28;20060;-42
2023/12/25 17:18:09;;;;;;;10.27;2.67;;;12.10;99.90;;;;;;20663733;28;20046;-41
2023/12/25 17:28:10;;;;;;;11.60;2.95;;;11.90;99.90;;;;;;20665308;28;20085;-42
2023/12/25 17:38:10;;;;;;;9.93;3.30;;;11.90;99.90;;;;;;20665665;28;20056;-41
2023/12/25 17:48:11;;;;;;;11.38;2.67;;;11.80;99.90;;;;;;20666416;28;20073;-41
2023/12/25 17:58:12;;;;;;;10.13;3.92;;;11.80;99.90;;;;;;20660569;28;20033;-41
2023/12/25 18:08:13;;;;;;;7.32;2.17;;;11.60;99.90;;;;;;20616020;28;20125;-42
2023/12/25 18:18:13;;;;;;;7.80;2.42;;;11.50;99.90;;;;;;20677069;28;20038;-42
2023/12/25 18:28:14;;;;;;;10.73;3.30;;;11.50;99.90;;;;;;20681717;28;20824;-42
2023/12/25 18:38:14;;;;;;;13.40;3.53;;;11.40;99.90;;;;;;20678413;28;20057;-41
2023/12/25 18:48:15;;;;;;;8.50;2.10;;;11.50;99.90;;;;;;20672872;28;20525;-42
2023/12/25 18:58:15;;;;;;;8.38;2.30;;;11.50;99.90;;;;;;20672404;28;20093;-41
2023/12/25 19:08:16;;;;;;;6.45;2.00;;;11.30;99.90;;;;;;20672212;28;20042;-42
2023/12/25 19:18:17;;;;;;;9.30;3.65;;;11.20;99.90;;;;;;20674669;28;20042;-41
2023/12/25 19:28:18;;;;;;;16.45;8.23;;;11.10;99.90;;;;;;20675822;28;20096;-42
2023/12/25 19:38:18;;;;;;;6.05;3.20;;;11.10;99.90;;;;;;20674803;28;20098;-42
2023/12/25 19:48:19;;;;;;;8.15;2.90;;;11.00;99.90;;;;;;20673805;28;20069;-42
2023/12/25 19:58:21;;;;;;;6.30;2.92;;;11.00;99.90;;;;;;20670373;28;20490;-42
2023/12/25 20:08:21;;;;;;;5.72;2.47;;;10.90;99.90;;;;;;20670760;28;20050;-42
2023/12/25 20:18:24;;;;;;;5.25;2.33;;;10.80;99.90;;;;;;20671862;28;20078;-42
2023/12/25 20:28:25;;;;;;;6.13;2.78;;;10.70;99.90;;;;;;20672236;28;20050;-42
2023/12/25 20:38:25;;;;;;;4.57;2.42;;;10.60;99.90;;;;;;20668573;28;20364;-42
2023/12/25 20:48:26;;;;;;;8.73;3.67;;;10.70;99.90;;;;;;20670820;28;20084;-42
2023/12/25 20:58:28;;;;;;;6.82;4.18;;;10.60;99.90;;;;;;20666869;28;20041;-42
2023/12/25 21:08:29;;;;;;;6.07;3.03;;;10.70;99.90;;;;;;20671121;28;20469;-42
2023/12/25 21:18:30;;;;;;;3.60;1.30;;;11.00;99.90;;;;;;20670862;28;20045;-42
2023/12/25 21:28:35;;;;;;;3.35;1.33;;;11.50;99.90;;;;;;20664845;28;20038;-42
2023/12/25 21:38:36;;;;;;;3.58;1.50;;;11.60;99.90;;;;;;20664278;28;20049;-42
2023/12/25 21:48:38;;;;;;;4.35;1.70;;;11.70;99.90;;;;;;20673212;28;20046;-42
2023/12/25 21:58:39;;;;;;;4.47;1.60;;;11.80;99.90;;;;;;20685199;28;20054;-41
2023/12/25 22:08:39;;;;;;;3.42;1.10;;;11.70;99.90;;;;;;20680679;28;20054;-41
2023/12/25 22:18:40;;;;;;;7.10;1.30;;;11.80;99.90;;;;;;20684674;28;20465;-41
2023/12/25 22:28:40;;;;;;;3.17;0.50;;;11.80;99.90;;;;;;20684412;28;20038;-41
2023/12/25 22:38:42;;;;;;;2.22;0.57;;;11.70;99.90;;;;;;20684419;28;20050;-41
2023/12/25 22:48:43;;;;;;;3.63;0.55;;;11.60;99.90;;;;;;20683829;28;20053;-42
2023/12/25 22:58:43;;;;;;;3.92;0.80;;;11.50;99.90;;;;;;20677418;28;20042;-41
2023/12/25 23:08:44;;;;;;;5.55;0.90;;;11.60;99.90;;;;;;20673513;28;20050;-40
2023/12/25 23:18:44;;;;;;;6.13;1.00;;;11.50;99.90;;;;;;20679128;28;20037;-41
2023/12/25 23:28:45;;;;;;;6.40;1.13;;;11.50;99.90;;;;;;20681087;28;20394;-41
2023/12/25 23:38:45;;;;;;;9.40;1.37;;;11.40;99.90;;;;;;20672399;28;20108;-41
2023/12/25 23:48:46;;;;;;;11.23;1.30;;;11.40;99.90;;;;;;20674756;28;20053;-42
2023/12/25 23:58:47;;;;;;;11.82;1.70;;;11.40;99.90;;;;;;20672673;28;20097;-41
